createdAt,value
2022-09-23T00:00:42.463Z,66.84
2022-09-23T00:02:48.656Z,67.19
2022-09-23T00:04:52.689Z,66.78
2022-09-23T00:06:55.454Z,66.78
2022-09-23T00:08:58.058Z,66.78
2022-09-23T00:11:05.045Z,67.25
2022-09-23T00:13:08.480Z,67.04
2022-09-23T00:15:11.550Z,66.91
2022-09-23T00:17:14.573Z,67.05
2022-09-23T00:19:17.213Z,67.52
2022-09-23T00:21:22.203Z,67.97
2022-09-23T00:23:24.829Z,67.43
2022-09-23T00:25:29.657Z,67.15
2022-09-23T00:27:33.843Z,67.35
2022-09-23T00:29:36.894Z,67.60
2022-09-23T00:31:39.520Z,67.27
2022-09-23T00:33:43.389Z,67.79
2022-09-23T00:35:46.075Z,67.78
2022-09-23T00:37:50.050Z,67.85
2022-09-23T00:39:52.678Z,66.98
2022-09-23T00:41:55.932Z,67.08
2022-09-23T00:43:59.270Z,67.21
2022-09-23T00:46:02.024Z,67.66
2022-09-23T00:48:05.234Z,67.07
2022-09-23T00:50:10.688Z,67.54
2022-09-23T00:52:16.795Z,67.44
2022-09-23T00:54:22.041Z,67.51
2022-09-23T00:56:25.306Z,67.54
2022-09-23T00:58:31.118Z,67.63
2022-09-23T01:00:35.518Z,67.60
2022-09-23T01:02:39.440Z,67.77
2022-09-23T01:04:42.494Z,67.94
2022-09-23T01:06:45.249Z,67.58
2022-09-23T01:08:48.408Z,67.82
2022-09-23T01:10:57.344Z,67.25
2022-09-23T01:13:06.850Z,67.93
2022-09-23T01:15:15.219Z,67.73
2022-09-23T01:17:23.874Z,67.58
2022-09-23T01:19:38.367Z,67.51
2022-09-23T01:21:48.204Z,67.78
2022-09-23T01:24:16.407Z,68.13
2022-09-23T01:26:29.625Z,67.41
2022-09-23T01:28:41.375Z,67.53
2022-09-23T01:30:48.671Z,67.11
2022-09-23T01:32:57.294Z,67.66
2022-09-23T01:35:04.475Z,68.26
2022-09-23T01:37:09.774Z,68.11
2022-09-23T01:39:15.373Z,68.12
2022-09-23T01:41:25.566Z,68.04
2022-09-23T01:43:32.299Z,67.55
2022-09-23T01:45:37.317Z,67.84
2022-09-23T01:47:44.977Z,67.80
2022-09-23T01:49:51.474Z,67.82
2022-09-23T01:51:57.987Z,67.70
2022-09-23T01:54:05.507Z,67.58
2022-09-23T01:56:13.471Z,67.53
2022-09-23T01:58:20.225Z,68.30
2022-09-23T02:00:24.011Z,68.60
2022-09-23T02:02:30.285Z,67.61
2022-09-23T02:04:39.607Z,67.77
2022-09-23T02:06:46.356Z,68.16
2022-09-23T02:08:53.054Z,68.37
2022-09-23T02:10:58.608Z,68.23
2022-09-23T02:13:05.271Z,68.08
2022-09-23T02:15:10.284Z,68.08
2022-09-23T02:17:16.482Z,67.63
2022-09-23T02:19:21.818Z,67.44
2022-09-23T02:21:27.555Z,67.53
2022-09-23T02:23:32.906Z,68.21
2022-09-23T02:25:40.083Z,67.64
2022-09-23T02:27:45.494Z,68.00
2022-09-23T02:29:54.642Z,67.99
2022-09-23T02:31:58.922Z,68.05
2022-09-23T02:34:04.107Z,67.96
2022-09-23T02:36:09.851Z,68.43
2022-09-23T02:38:18.852Z,68.75
2022-09-23T02:40:25.105Z,68.19
2022-09-23T02:42:33.218Z,68.51
2022-09-23T02:44:35.999Z,69.06
2022-09-23T02:46:38.905Z,69.00
2022-09-23T02:48:42.485Z,68.77
2022-09-23T02:50:47.618Z,68.13
2022-09-23T02:52:50.266Z,68.57
2022-09-23T02:54:54.343Z,69.08
2022-09-23T02:56:57.323Z,68.49
2022-09-23T02:59:00.102Z,68.68
2022-09-23T03:01:08.410Z,68.47
2022-09-23T03:03:24.107Z,68.66
2022-09-23T03:05:30.159Z,69.44
2022-09-23T03:07:37.006Z,69.04
2022-09-23T03:09:42.113Z,69.49
2022-09-23T03:11:49.703Z,69.50
2022-09-23T03:13:56.201Z,69.09
2022-09-23T03:16:05.070Z,68.85
2022-09-23T03:18:12.764Z,68.46
2022-09-23T03:20:18.605Z,68.55
2022-09-23T03:22:24.467Z,68.66
2022-09-23T03:24:27.177Z,68.40
2022-09-23T03:26:32.143Z,67.82
2022-09-23T03:28:37.508Z,67.57
2022-09-23T03:30:42.085Z,67.90
2022-09-23T03:32:45.888Z,67.90
2022-09-23T03:34:50.216Z,68.38
2022-09-23T03:36:57.183Z,68.18
2022-09-23T03:39:03.912Z,69.06
2022-09-23T03:41:09.421Z,68.69
2022-09-23T03:43:13.253Z,69.51
2022-09-23T03:45:19.781Z,68.99
2022-09-23T03:47:22.391Z,68.82
2022-09-23T03:49:27.286Z,69.72
2022-09-23T03:51:29.935Z,69.05
2022-09-23T03:53:32.532Z,69.65
2022-09-23T03:55:35.553Z,69.71
2022-09-23T03:57:38.743Z,69.69
2022-09-23T03:59:41.775Z,69.80
2022-09-23T04:01:46.073Z,69.84
2022-09-23T04:03:49.164Z,70.08
2022-09-23T04:05:51.845Z,70.10
2022-09-23T04:07:54.863Z,69.95
2022-09-23T04:09:57.891Z,69.84
2022-09-23T04:12:00.758Z,69.80
2022-09-23T04:14:03.373Z,70.02
2022-09-23T04:16:06.224Z,69.83
2022-09-23T04:18:10.287Z,69.91
2022-09-23T04:20:12.989Z,70.07
2022-09-23T04:22:15.596Z,70.34
2022-09-23T04:24:18.344Z,70.56
2022-09-23T04:26:20.959Z,70.56
2022-09-23T04:28:23.945Z,70.47
2022-09-23T04:30:26.631Z,70.77
2022-09-23T04:32:29.262Z,71.00
2022-09-23T04:34:33.268Z,70.91
2022-09-23T04:36:36.156Z,71.26
2022-09-23T04:38:38.745Z,71.33
2022-09-23T04:40:41.546Z,71.42
2022-09-23T04:42:44.193Z,71.50
2022-09-23T04:44:46.836Z,71.24
2022-09-23T04:46:49.715Z,71.44
2022-09-23T04:48:52.354Z,71.19
2022-09-23T04:51:02.453Z,71.24
2022-09-23T04:53:05.381Z,71.04
2022-09-23T04:55:11.231Z,71.19
2022-09-23T04:57:14.875Z,71.42
2022-09-23T04:59:17.594Z,70.75
2022-09-23T05:01:24.656Z,70.40
2022-09-23T05:03:27.431Z,70.76
2022-09-23T05:05:31.810Z,70.71
2022-09-23T05:07:36.167Z,71.19
2022-09-23T05:09:38.746Z,70.71
2022-09-23T05:11:41.385Z,70.77
2022-09-23T05:13:44.238Z,70.96
2022-09-23T05:15:46.874Z,70.65
2022-09-23T05:17:49.693Z,70.80
2022-09-23T05:19:52.313Z,70.79
2022-09-23T05:21:55.086Z,70.61
2022-09-23T05:24:00.774Z,70.62
2022-09-23T05:26:04.645Z,70.21
2022-09-23T05:28:07.230Z,70.20
2022-09-23T05:30:11.591Z,70.51
2022-09-23T05:32:14.815Z,70.50
2022-09-23T05:34:18.641Z,70.54
2022-09-23T05:36:21.493Z,70.95
2022-09-23T05:38:24.199Z,70.91
2022-09-23T05:40:28.239Z,71.04
2022-09-23T05:42:30.878Z,70.79
2022-09-23T05:44:33.553Z,70.99
2022-09-23T05:46:36.506Z,71.32
2022-09-23T05:48:39.938Z,70.77
2022-09-23T05:50:49.901Z,71.00
2022-09-23T05:52:52.536Z,70.90
2022-09-23T05:54:57.998Z,71.01
2022-09-23T05:57:04.894Z,70.63
2022-09-23T05:59:07.977Z,70.72
2022-09-23T06:01:11.578Z,71.65
2022-09-23T06:03:14.348Z,71.90
2022-09-23T06:05:17.238Z,71.95
2022-09-23T06:07:19.960Z,72.14
2022-09-23T06:09:22.545Z,72.31
2022-09-23T06:11:25.165Z,71.73
2022-09-23T06:13:29.141Z,71.88
2022-09-23T06:15:32.589Z,71.36
2022-09-23T06:17:35.208Z,71.23
2022-09-23T06:19:37.841Z,71.78
2022-09-23T06:21:41.341Z,71.14
2022-09-23T06:23:44.458Z,71.67
2022-09-23T06:25:47.092Z,71.37
2022-09-23T06:27:54.271Z,71.25
2022-09-23T06:29:58.269Z,71.11
2022-09-23T06:32:00.976Z,71.66
2022-09-23T06:34:11.794Z,71.02
2022-09-23T06:36:28.395Z,71.33
2022-09-23T06:38:40.027Z,71.22
2022-09-23T06:40:42.721Z,71.15
2022-09-23T06:42:49.029Z,70.46
2022-09-23T06:44:54.788Z,70.52
2022-09-23T06:46:58.774Z,71.20
2022-09-23T06:49:02.723Z,71.45
2022-09-23T06:51:07.333Z,70.97
2022-09-23T06:53:10.018Z,71.44
2022-09-23T06:55:12.708Z,71.56
2022-09-23T06:57:15.418Z,71.39
2022-09-23T06:59:18.260Z,71.45
2022-09-23T07:01:21.140Z,70.56
2022-09-23T07:03:25.099Z,70.53
2022-09-23T07:05:27.734Z,71.29
2022-09-23T07:07:31.586Z,71.43
2022-09-23T07:09:34.236Z,71.45
2022-09-23T07:11:37.645Z,71.25
2022-09-23T07:13:41.099Z,71.45
2022-09-23T07:15:43.727Z,70.60
2022-09-23T07:17:46.378Z,71.25
2022-09-23T07:19:50.735Z,71.20
2022-09-23T07:21:53.821Z,70.45
2022-09-23T07:23:58.165Z,70.40
2022-09-23T07:26:01.250Z,71.02
2022-09-23T07:28:03.875Z,70.06
2022-09-23T07:30:12.370Z,70.53
2022-09-23T07:32:19.909Z,70.26
2022-09-23T07:34:22.615Z,70.50
2022-09-23T07:36:28.009Z,70.79
2022-09-23T07:38:31.415Z,70.04
2022-09-23T07:40:34.138Z,70.62
2022-09-23T07:42:36.867Z,70.60
2022-09-23T07:44:39.509Z,69.99
2022-09-23T07:46:42.245Z,69.40
2022-09-23T07:48:45.665Z,68.87
2022-09-23T07:50:48.303Z,69.53
2022-09-23T07:52:53.113Z,69.12
2022-09-23T07:54:55.753Z,69.50
2022-09-23T07:56:58.448Z,69.07
2022-09-23T07:59:02.258Z,69.15
2022-09-23T08:01:06.299Z,68.35
2022-09-23T08:03:09.320Z,68.09
2022-09-23T08:05:12.038Z,68.58
2022-09-23T08:07:14.685Z,68.82
2022-09-23T08:09:23.813Z,68.17
2022-09-23T08:11:27.043Z,68.44
2022-09-23T08:13:30.805Z,67.66
2022-09-23T08:15:33.650Z,68.50
2022-09-23T08:17:36.350Z,68.68
2022-09-23T08:19:39.012Z,68.84
2022-09-23T08:21:41.789Z,68.11
2022-09-23T08:23:44.532Z,67.69
2022-09-23T08:25:48.829Z,67.21
2022-09-23T08:27:52.454Z,66.76
2022-09-23T08:29:55.100Z,66.37
2022-09-23T08:31:58.058Z,65.79
2022-09-23T08:34:00.666Z,64.94
2022-09-23T08:36:03.916Z,63.43
2022-09-23T08:38:06.739Z,63.28
2022-09-23T08:40:09.958Z,62.87
2022-09-23T08:42:18.346Z,62.60
2022-09-23T08:44:25.164Z,62.79
2022-09-23T08:46:30.882Z,62.92
2022-09-23T08:48:36.738Z,62.22
2022-09-23T08:50:42.723Z,62.48
2022-09-23T08:52:49.427Z,62.47
2022-09-23T08:54:55.445Z,61.47
2022-09-23T08:57:00.700Z,61.88
2022-09-23T08:59:08.456Z,62.38
2022-09-23T09:01:16.438Z,62.99
2022-09-23T09:03:21.664Z,62.68
2022-09-23T09:05:27.479Z,60.94
2022-09-23T09:07:37.667Z,60.31
2022-09-23T09:09:42.245Z,60.67
2022-09-23T09:11:48.620Z,61.41
2022-09-23T09:13:58.483Z,60.81
2022-09-23T09:16:14.986Z,60.75
2022-09-23T09:18:19.657Z,60.55
2022-09-23T09:20:23.640Z,58.91
2022-09-23T09:24:39.586Z,58.64
2022-09-23T09:26:42.253Z,58.70
2022-09-23T09:28:48.423Z,59.50
2022-09-23T09:30:54.685Z,59.46
2022-09-23T09:33:02.647Z,58.63
2022-09-23T09:35:08.794Z,58.69
2022-09-23T09:37:15.838Z,57.77
2022-09-23T09:39:21.861Z,57.80
2022-09-23T09:41:32.219Z,57.97
2022-09-23T09:43:35.301Z,56.97
2022-09-23T09:45:48.503Z,55.99
2022-09-23T09:47:56.595Z,55.22
2022-09-23T09:50:06.995Z,56.16
2022-09-23T09:52:13.662Z,55.04
2022-09-23T09:54:17.566Z,55.73
2022-09-23T09:56:27.202Z,54.63
2022-09-23T09:58:33.465Z,54.70
2022-09-23T10:00:38.144Z,55.62
2022-09-23T10:02:41.665Z,54.49
2022-09-23T10:04:44.441Z,53.84
2022-09-23T10:07:04.305Z,55.00
2022-09-23T10:09:11.435Z,53.81
2022-09-23T10:11:16.104Z,53.59
2022-09-23T10:13:20.622Z,54.35
2022-09-23T10:15:31.198Z,54.26
2022-09-23T10:17:35.353Z,52.54
2022-09-23T10:19:39.225Z,53.02
2022-09-23T10:21:42.216Z,54.17
2022-09-23T10:23:47.474Z,54.15
2022-09-23T10:25:57.440Z,54.72
2022-09-23T10:28:03.639Z,54.39
2022-09-23T10:30:22.140Z,54.08
2022-09-23T10:32:26.829Z,53.81
2022-09-23T10:34:29.635Z,53.88
2022-09-23T10:36:33.114Z,53.60
2022-09-23T10:38:35.719Z,52.90
2022-09-23T10:40:58.645Z,53.80
2022-09-23T10:43:29.841Z,53.30
2022-09-23T10:45:52.391Z,53.59
2022-09-23T10:48:00.890Z,53.25
2022-09-23T10:50:18.406Z,53.35
2022-09-23T10:52:28.012Z,52.55
2022-09-23T10:54:36.805Z,51.83
2022-09-23T10:56:44.002Z,51.47
2022-09-23T10:58:55.463Z,51.32
2022-09-23T11:01:04.264Z,52.14
2022-09-23T11:03:21.790Z,52.33
2022-09-23T11:05:32.662Z,51.83
2022-09-23T11:07:39.607Z,50.76
2022-09-23T11:09:53.311Z,51.19
2022-09-23T11:12:03.479Z,50.68
2022-09-23T11:14:15.738Z,50.94
2022-09-23T11:16:25.767Z,51.06
2022-09-23T11:18:49.142Z,51.08
2022-09-23T11:20:57.779Z,50.96
2022-09-23T11:23:11.960Z,50.63
2022-09-23T11:25:21.143Z,51.23
2022-09-23T11:27:31.641Z,51.01
2022-09-23T11:29:45.324Z,51.23
2022-09-23T11:31:58.828Z,50.97
2022-09-23T11:34:08.765Z,51.11
2022-09-23T11:36:13.657Z,51.13
2022-09-23T11:38:18.846Z,51.38
2022-09-23T11:40:24.342Z,51.24
2022-09-23T11:42:29.921Z,50.69
2022-09-23T11:44:34.724Z,50.23
2022-09-23T11:46:39.891Z,50.49
2022-09-23T11:48:44.696Z,50.21
2022-09-23T11:50:49.911Z,50.31
2022-09-23T11:52:58.536Z,50.03
2022-09-23T11:55:10.566Z,49.31
2022-09-23T11:57:20.944Z,49.71
2022-09-23T11:59:39.469Z,50.36
2022-09-23T12:01:46.627Z,50.65
2022-09-23T12:03:52.646Z,49.47
2022-09-23T12:06:02.474Z,48.86
2022-09-23T12:08:08.078Z,49.23
2022-09-23T12:10:12.115Z,49.51
2022-09-23T12:12:18.731Z,49.69
2022-09-23T12:14:25.859Z,48.88
2022-09-23T12:16:53.729Z,49.50
2022-09-23T12:19:04.503Z,49.89
2022-09-23T12:21:27.414Z,49.45
2022-09-23T12:23:44.420Z,49.39
2022-09-23T12:25:51.019Z,50.57
2022-09-23T12:27:55.455Z,49.75
2022-09-23T12:30:00.315Z,50.72
2022-09-23T12:32:09.845Z,50.33
2022-09-23T12:34:21.742Z,50.57
2022-09-23T12:36:26.703Z,50.94
2022-09-23T12:38:34.494Z,50.34
2022-09-23T12:40:40.751Z,51.28
2022-09-23T12:42:45.969Z,52.03
2022-09-23T12:44:50.512Z,52.29
2022-09-23T12:47:24.730Z,52.44
2022-09-23T12:49:37.495Z,50.80
2022-09-23T12:52:00.129Z,50.82
2022-09-23T12:54:21.091Z,51.02
2022-09-23T12:56:25.202Z,49.82
2022-09-23T12:58:38.417Z,49.90
2022-09-23T13:00:41.034Z,49.42
2022-09-23T13:02:44.552Z,49.95
2022-09-23T13:05:14.657Z,49.79
2022-09-23T13:07:17.676Z,49.83
2022-09-23T13:09:22.373Z,50.32
2022-09-23T13:11:27.298Z,49.51
2022-09-23T13:13:33.790Z,50.12
2022-09-23T13:15:37.230Z,50.40
2022-09-23T13:17:40.867Z,50.73
2022-09-23T13:19:47.026Z,50.04
2022-09-23T13:22:07.871Z,49.84
2022-09-23T13:24:21.456Z,49.39
2022-09-23T13:26:24.124Z,48.24
2022-09-23T13:28:32.564Z,49.83
2022-09-23T13:30:35.595Z,49.99
2022-09-23T13:32:40.556Z,49.78
2022-09-23T13:34:44.238Z,50.60
2022-09-23T13:36:47.492Z,50.36
2022-09-23T13:38:51.414Z,50.39
2022-09-23T13:40:55.474Z,50.66
2022-09-23T13:42:59.611Z,50.53
2022-09-23T13:45:02.308Z,50.54
2022-09-23T13:47:04.963Z,50.75
2022-09-23T13:49:19.668Z,50.83
2022-09-23T13:51:24.461Z,50.71
2022-09-23T13:53:28.612Z,51.26
2022-09-23T13:55:33.471Z,50.91
2022-09-23T13:57:36.160Z,51.22
2022-09-23T13:59:42.295Z,51.01
2022-09-23T14:01:45.551Z,50.77
2022-09-23T14:03:48.409Z,50.76
2022-09-23T14:05:51.791Z,49.80
2022-09-23T14:07:55.352Z,49.29
2022-09-23T14:09:57.944Z,48.84
2022-09-23T14:12:02.947Z,49.45
2022-09-23T14:14:07.030Z,49.74
2022-09-23T14:16:11.896Z,50.44
2022-09-23T14:18:19.090Z,50.98
2022-09-23T14:20:22.701Z,49.49
2022-09-23T14:22:26.237Z,48.93
2022-09-23T14:24:32.856Z,49.11
2022-09-23T14:26:35.501Z,49.45
2022-09-23T14:28:39.471Z,49.33
2022-09-23T14:30:43.306Z,49.53
2022-09-23T14:32:47.759Z,48.03
2022-09-23T14:34:51.261Z,48.74
2022-09-23T14:37:11.281Z,49.73
2022-09-23T14:39:13.885Z,49.31
2022-09-23T14:41:22.098Z,49.30
2022-09-23T14:43:26.111Z,49.18
2022-09-23T14:45:32.551Z,50.32
2022-09-23T14:47:36.189Z,49.96
2022-09-23T14:49:58.824Z,50.45
2022-09-23T14:52:06.816Z,50.15
2022-09-23T14:54:39.790Z,50.72
2022-09-23T14:56:43.186Z,50.80
2022-09-23T14:58:51.902Z,51.17
2022-09-23T15:00:58.486Z,51.53
2022-09-23T15:03:01.862Z,50.97
2022-09-23T15:05:18.590Z,50.78
2022-09-23T15:07:23.124Z,51.06
2022-09-23T15:09:26.899Z,50.60
2022-09-23T15:11:31.140Z,50.91
2022-09-23T15:13:36.918Z,50.59
2022-09-23T15:15:39.648Z,50.78
2022-09-23T15:17:44.027Z,51.36
2022-09-23T15:19:52.429Z,51.58
2022-09-23T15:21:54.994Z,51.80
2022-09-23T15:23:58.548Z,51.73
2022-09-23T15:26:03.300Z,51.90
2022-09-23T15:28:18.191Z,52.27
2022-09-23T15:30:21.066Z,52.11
2022-09-23T15:32:23.686Z,52.08
2022-09-23T15:34:27.641Z,51.92
2022-09-23T15:36:30.340Z,52.11
2022-09-23T15:38:33.176Z,52.38
2022-09-23T15:40:36.490Z,52.30
2022-09-23T15:42:39.708Z,52.62
2022-09-23T15:44:42.265Z,52.95
2022-09-23T15:46:46.213Z,53.72
2022-09-23T15:48:58.774Z,53.70
2022-09-23T15:51:10.485Z,53.90
2022-09-23T15:53:15.018Z,54.51
2022-09-23T15:55:18.351Z,54.69
2022-09-23T15:57:21.506Z,55.36
2022-09-23T15:59:24.416Z,54.97
2022-09-23T16:01:28.706Z,55.17
2022-09-23T16:03:31.607Z,54.64
2022-09-23T16:05:36.716Z,54.72
2022-09-23T16:07:40.694Z,55.47
2022-09-23T16:09:43.384Z,55.60
2022-09-23T16:11:47.133Z,55.79
2022-09-23T16:13:51.322Z,55.66
2022-09-23T16:15:53.969Z,55.68
2022-09-23T16:17:56.579Z,55.61
2022-09-23T16:19:59.183Z,55.15
2022-09-23T16:22:01.982Z,55.24
2022-09-23T16:24:06.329Z,55.25
2022-09-23T16:26:15.132Z,55.09
2022-09-23T16:28:17.734Z,55.32
2022-09-23T16:30:20.346Z,55.19
2022-09-23T16:32:24.070Z,55.33
2022-09-23T16:34:26.644Z,55.31
2022-09-23T16:36:31.206Z,55.43
2022-09-23T16:38:33.794Z,55.65
2022-09-23T16:40:37.747Z,55.46
2022-09-23T16:42:40.370Z,55.73
2022-09-23T16:44:43.059Z,55.69
2022-09-23T16:46:45.661Z,55.99
2022-09-23T16:48:52.717Z,56.09
2022-09-23T16:50:55.771Z,56.29
2022-09-23T16:52:58.568Z,56.22
2022-09-23T16:55:01.204Z,56.58
2022-09-23T16:57:05.255Z,56.69
2022-09-23T16:59:07.980Z,57.05
2022-09-23T17:01:30.531Z,56.89
2022-09-23T17:03:41.140Z,57.23
2022-09-23T17:05:46.592Z,57.37
2022-09-23T17:07:49.562Z,57.40
2022-09-23T17:09:52.233Z,57.99
2022-09-23T17:11:59.147Z,57.96
2022-09-23T17:14:03.090Z,57.93
2022-09-23T17:16:06.022Z,58.07
2022-09-23T17:18:09.348Z,58.52
2022-09-23T17:20:13.084Z,58.58
2022-09-23T17:22:15.664Z,58.43
2022-09-23T17:24:18.229Z,58.54
2022-09-23T17:26:23.214Z,59.03
2022-09-23T17:28:26.318Z,58.88
2022-09-23T17:30:30.278Z,58.62
2022-09-23T17:32:32.871Z,58.69
2022-09-23T17:34:35.453Z,59.14
2022-09-23T17:36:39.500Z,59.33
2022-09-23T17:38:43.450Z,59.23
2022-09-23T17:40:50.279Z,58.88
2022-09-23T17:42:53.639Z,59.14
2022-09-23T17:44:58.162Z,59.50
2022-09-23T17:47:02.125Z,59.79
2022-09-23T17:49:05.267Z,59.38
2022-09-23T17:51:08.757Z,59.62
2022-09-23T17:53:11.352Z,59.04
2022-09-23T17:55:13.978Z,59.57
2022-09-23T17:57:16.606Z,59.67
2022-09-23T17:59:19.218Z,60.00
2022-09-23T18:01:22.938Z,60.68
2022-09-23T18:03:28.087Z,61.21
2022-09-23T18:05:30.834Z,60.69
2022-09-23T18:07:33.439Z,60.24
2022-09-23T18:09:36.045Z,60.35
2022-09-23T18:11:39.383Z,60.41
2022-09-23T18:13:42.977Z,60.59
2022-09-23T18:15:45.641Z,60.23
2022-09-23T18:17:48.260Z,60.20
2022-09-23T18:19:52.167Z,60.42
2022-09-23T18:21:56.062Z,60.50
2022-09-23T18:24:21.339Z,60.92
2022-09-23T18:26:22.712Z,61.34
2022-09-23T18:28:25.297Z,61.46
2022-09-23T18:30:31.980Z,61.56
2022-09-23T18:32:34.789Z,61.69
2022-09-23T18:34:37.438Z,61.78
2022-09-23T18:36:41.428Z,63.07
2022-09-23T18:38:44.029Z,62.62
2022-09-23T18:40:55.357Z,62.74
2022-09-23T18:42:57.953Z,62.01
2022-09-23T18:45:00.537Z,62.53
2022-09-23T18:47:03.137Z,62.24
2022-09-23T18:49:23.647Z,63.01
2022-09-23T18:51:28.164Z,62.95
2022-09-23T18:53:34.356Z,63.44
2022-09-23T18:55:37.375Z,63.66
2022-09-23T18:57:40.711Z,63.45
2022-09-23T18:59:44.332Z,63.85
2022-09-23T19:01:48.160Z,63.74
2022-09-23T19:03:54.724Z,63.81
2022-09-23T19:06:01.856Z,63.04
2022-09-23T19:08:04.508Z,63.26
2022-09-23T19:10:09.900Z,63.46
2022-09-23T19:12:12.540Z,64.88
2022-09-23T19:14:15.515Z,64.65
2022-09-23T19:16:18.319Z,64.65
2022-09-23T19:18:21.191Z,64.67
2022-09-23T19:20:24.625Z,64.66
2022-09-23T19:22:27.201Z,66.03
2022-09-23T19:24:29.794Z,65.76
2022-09-23T19:26:36.624Z,66.15
2022-09-23T19:28:39.628Z,65.92
2022-09-23T19:30:42.368Z,65.81
2022-09-23T19:32:45.221Z,65.19
2022-09-23T19:34:47.838Z,65.95
2022-09-23T19:36:50.464Z,65.92
2022-09-23T19:38:56.896Z,66.63
2022-09-23T19:41:03.530Z,66.76
2022-09-23T19:43:07.602Z,66.34
2022-09-23T19:45:10.538Z,66.40
2022-09-23T19:47:17.023Z,67.08
2022-09-23T19:49:19.735Z,67.26
2022-09-23T19:51:22.484Z,66.57
2022-09-23T19:53:28.111Z,67.54
2022-09-23T19:55:31.096Z,66.81
2022-09-23T19:57:33.972Z,66.60
2022-09-23T19:59:40.091Z,67.38
2022-09-23T20:01:42.785Z,67.44
2022-09-23T20:03:46.893Z,67.24
2022-09-23T20:05:55.189Z,67.01
2022-09-23T20:07:58.924Z,67.49
2022-09-23T20:10:01.770Z,68.52
2022-09-23T20:12:04.763Z,68.18
2022-09-23T20:14:07.769Z,68.26
2022-09-23T20:16:12.227Z,68.00
2022-09-23T20:18:15.247Z,68.12
2022-09-23T20:20:18.008Z,68.53
2022-09-23T20:22:32.230Z,68.83
2022-09-23T20:24:35.880Z,68.60
2022-09-23T20:26:56.295Z,69.09
2022-09-23T20:28:59.571Z,69.50
2022-09-23T20:31:02.308Z,70.29
2022-09-23T20:33:06.308Z,70.02
2022-09-23T20:35:09.260Z,70.28
2022-09-23T20:37:11.975Z,70.28
2022-09-23T20:39:14.610Z,70.35
2022-09-23T20:41:17.202Z,70.25
2022-09-23T20:43:20.148Z,70.64
2022-09-23T20:45:22.687Z,70.77
2022-09-23T20:47:25.391Z,70.58
2022-09-23T20:49:34.033Z,71.01
2022-09-23T20:51:36.677Z,71.07
2022-09-23T20:53:39.276Z,70.19
2022-09-23T20:55:49.750Z,70.88
2022-09-23T20:57:52.476Z,70.31
2022-09-23T20:59:55.045Z,71.68
2022-09-23T21:01:58.083Z,72.05
2022-09-23T21:04:03.737Z,71.19
2022-09-23T21:06:08.963Z,72.08
2022-09-23T21:08:12.520Z,71.40
2022-09-23T21:10:15.137Z,71.23
2022-09-23T21:12:17.736Z,71.58
2022-09-23T21:14:21.508Z,71.53
2022-09-23T21:16:24.526Z,71.65
2022-09-23T21:18:27.559Z,71.17
2022-09-23T21:20:30.206Z,71.26
2022-09-23T21:22:35.102Z,70.76
2022-09-23T21:25:25.338Z,71.78
2022-09-23T21:27:00.296Z,71.20
2022-09-23T21:29:03.900Z,71.08
2022-09-23T21:31:08.354Z,70.73
2022-09-23T21:33:11.638Z,70.97
2022-09-23T21:35:14.591Z,70.97
2022-09-23T21:37:17.538Z,71.18
2022-09-23T21:39:21.636Z,71.62
2022-09-23T21:41:24.877Z,72.12
2022-09-23T21:43:32.409Z,72.79
2022-09-23T21:45:35.133Z,72.65
2022-09-23T21:47:37.838Z,72.47
2022-09-23T21:49:41.522Z,72.20
2022-09-23T21:51:54.859Z,72.68
2022-09-23T21:53:58.714Z,72.83
2022-09-23T21:56:04.248Z,73.28
2022-09-23T21:58:07.223Z,72.93
2022-09-23T22:00:10.684Z,73.05
2022-09-23T22:02:13.804Z,72.84
2022-09-23T22:04:19.893Z,73.16
2022-09-23T22:06:23.529Z,72.95
2022-09-23T22:08:26.168Z,73.91
2022-09-23T22:10:29.490Z,74.26
2022-09-23T22:12:33.762Z,74.24
2022-09-23T22:14:39.272Z,73.39
2022-09-23T22:16:42.616Z,74.28
2022-09-23T22:18:45.398Z,74.55
2022-09-23T22:20:48.428Z,73.99
2022-09-23T22:22:51.309Z,74.11
2022-09-23T22:24:53.978Z,74.36
2022-09-23T22:26:56.574Z,74.50
2022-09-23T22:29:18.290Z,75.13
2022-09-23T22:31:38.866Z,74.78
2022-09-23T22:33:41.518Z,75.47
2022-09-23T22:35:44.124Z,75.51
2022-09-23T22:37:49.109Z,75.52
2022-09-23T22:39:51.850Z,75.26
2022-09-23T22:41:54.809Z,75.67
2022-09-23T22:43:58.416Z,74.86
2022-09-23T22:46:02.469Z,75.49
2022-09-23T22:48:05.352Z,75.24
2022-09-23T22:50:09.540Z,74.91
2022-09-23T22:52:21.188Z,75.16
2022-09-23T22:54:24.128Z,75.51
2022-09-23T22:56:26.758Z,74.78
2022-09-23T22:58:32.669Z,74.84
2022-09-23T23:00:37.116Z,75.12
2022-09-23T23:02:42.280Z,75.25
2022-09-23T23:04:47.431Z,74.95
2022-09-23T23:06:50.062Z,75.06
2022-09-23T23:08:52.668Z,75.05
2022-09-23T23:10:55.852Z,74.88
2022-09-23T23:12:59.089Z,75.54
2022-09-23T23:15:01.732Z,75.11
2022-09-23T23:17:08.379Z,74.89
2022-09-23T23:19:13.981Z,75.06
2022-09-23T23:21:18.005Z,74.42
2022-09-23T23:23:20.614Z,74.43
2022-09-23T23:25:23.185Z,74.30
2022-09-23T23:27:25.798Z,74.64
2022-09-23T23:29:28.654Z,74.79
2022-09-23T23:31:33.032Z,74.79
2022-09-23T23:33:36.176Z,74.45
2022-09-23T23:35:40.106Z,74.64
2022-09-23T23:37:42.743Z,74.88
2022-09-23T23:39:47.656Z,74.82
2022-09-23T23:41:52.214Z,75.15
2022-09-23T23:43:55.745Z,75.10
2022-09-23T23:45:59.958Z,75.19
2022-09-23T23:48:03.060Z,75.16
2022-09-23T23:50:06.298Z,75.29
2022-09-23T23:52:10.607Z,75.21
2022-09-23T23:54:15.023Z,75.75
2022-09-23T23:56:18.541Z,75.58
2022-09-23T23:58:21.162Z,75.50
